Boston Pilot Mystic — VHF20 — position and weather

sailwx.info

Track history (hours):
 
Tides and Currents Weather Stations Pressure Air Temp Water Temp Dewpoint Dewpoint Depression Visibility Wind Speed Wind Dir Waves Ship Positions

Boston Pilot Mystic

Last reported at 2018-Feb-19 14:28 UTC. Time now 2018-Feb-19 14:37 UTC.
Position N 42°22' W 071°02'.

Length 16 m; draft 1.5 m.

Type: Pilot. MMSI: 367029020.

Date/timePositionNaut miles runAvg speedWind from/ knotsBaromVisibWave heightAir tempDewpointWater temp
2018-Feb-19 14:28N 42°22' W 071°02'0 0.0
2018-Feb-19 14:00N 42°22' W 071°02'0 0.3
2018-Feb-19 13:49N 42°22' W 071°02'0 0.2
2018-Feb-19 13:29N 42°22' W 071°02'629.4
2018-Feb-19 13:17N 42°19' W 070°54'622.6
2018-Feb-19 13:00N 42°22' W 071°02'931080.9
2018-Feb-19 13:00N 42°20' W 070°50'917.1
2018-Feb-19 12:30N 42°22' W 071°02'51056.3
2018-Feb-19 12:30N 42°19' W 070°55'510.0
2018-Feb-19 12:00N 42°21' W 071°02'019.4
2018-Feb-19 11:59N 42°22' W 071°02'0 0.0
2018-Feb-19 11:30N 42°22' W 071°02'0 0.9
2018-Feb-19 11:29N 42°22' W 071°02'0 0.0
2018-Feb-19 11:00N 42°22' W 071°02'0 2.2
2018-Feb-19 11:00N 42°22' W 071°02'0 0.0
2018-Feb-19 10:30N 42°22' W 071°02'0 0.4
2018-Feb-19 10:28N 42°22' W 071°02'0 0.0
2018-Feb-19 10:00N 42°22' W 071°02'021.6
2018-Feb-19 10:00N 42°22' W 071°02'0 0.0
2018-Feb-19 09:30N 42°22' W 071°02'021.6
2018-Feb-19 09:30N 42°22' W 071°02'0 0.0
2018-Feb-19 09:00N 42°22' W 071°02'064.8
2018-Feb-19 09:00N 42°22' W 071°02'0 0.0
2018-Feb-19 08:30N 42°22' W 071°02'0 0.0
2018-Feb-19 08:00N 42°22' W 071°02'0 2.0
2018-Feb-19 08:00N 42°22' W 071°02'0 0.0
2018-Feb-19 07:30N 42°22' W 071°02'0 0.0
2018-Feb-19 07:00N 42°22' W 071°02'0 1.7
2018-Feb-19 07:00N 42°22' W 071°02'0 0.0
2018-Feb-19 06:30N 42°22' W 071°02'0 2.8
2018-Feb-19 06:30N 42°22' W 071°02'0 0.0
2018-Feb-19 06:00N 42°22' W 071°02'0 1.1
2018-Feb-19 06:00N 42°22' W 071°02'2 3.3
2018-Feb-19 05:30N 42°21' W 071°00'2162.5
2018-Feb-19 05:29N 42°22' W 071°02'0 0.0
2018-Feb-19 04:59N 42°22' W 071°02'51782.9
2018-Feb-19 04:59N 42°22' W 070°55'510.3
2018-Feb-19 04:30N 42°22' W 071°02'2331.3
2018-Feb-19 04:30N 42°20' W 071°01'2 3.2
2018-Feb-19 04:00N 42°22' W 071°02'032.9
2018-Feb-19 04:00N 42°22' W 071°02'0 0.1
2018-Feb-19 03:30N 42°22' W 071°02'4353.5
2018-Feb-19 03:30N 42°20' W 070°58'611.4
2018-Feb-19 03:01N 42°23' W 070°51'85835.8
2018-Feb-19 03:00N 42°22' W 071°02'0 0.0
2018-Feb-19 02:30N 42°22' W 071°02'9752.0
2018-Feb-19 02:30N 42°24' W 070°50'4 7.3
2018-Feb-19 02:01N 42°22' W 070°54'6819.7
2018-Feb-19 02:00N 42°22' W 071°02'1 2.0
2018-Feb-19 01:30N 42°21' W 071°01'1101.9
2018-Feb-19 01:30N 42°22' W 071°02'0 0.0
2018-Feb-19 01:00N 42°22' W 071°02'0 2.9
2018-Feb-19 01:00N 42°22' W 071°02'0 0.0
2018-Feb-19 00:30N 42°22' W 071°02'0 1.5
2018-Feb-19 00:30N 42°22' W 071°02'0 0.0
2018-Feb-19 00:00N 42°22' W 071°02'0 1.6
2018-Feb-18 23:59N 42°22' W 071°02'0 0.0
2018-Feb-18 23:30N 42°22' W 071°02'0 0.6
2018-Feb-18 23:28N 42°22' W 071°02'0 0.0
2018-Feb-18 23:00N 42°22' W 071°02'0 0.7
2018-Feb-18 22:59N 42°22' W 071°02'0 0.0
2018-Feb-18 22:30N 42°22' W 071°02'0 3.2
2018-Feb-18 22:30N 42°22' W 071°02'0 0.0
2018-Feb-18 21:58N 42°22' W 071°02'0 0.1
2018-Feb-18 21:47N 42°22' W 071°02'0 0.0
2018-Feb-18 21:24N 42°22' W 071°02'0 0.0
2018-Feb-18 21:00N 42°22' W 071°02'0 0.0
2018-Feb-18 20:30N 42°22' W 071°02'0 0.0
2018-Feb-18 20:00N 42°22' W 071°02'0 0.0
2018-Feb-18 19:07N 42°22' W 071°02'0 0.0
2018-Feb-18 18:54N 42°22' W 071°02'0 0.1
2018-Feb-18 16:15N 42°22' W 071°02'715.3
2018-Feb-18 15:46N 42°23' W 070°52'2 5.4
2018-Feb-18 15:28N 42°22' W 070°54'1 2.6
2018-Feb-18 15:00N 42°23' W 070°53'7 7.0
2018-Feb-18 14:04N 42°21' W 071°01'1 3.7
2018-Feb-18 13:49N 42°22' W 071°02'0 0.1
2018-Feb-18 13:40N 42°22' W 071°02'0 0.1
2018-Feb-18 13:30N 42°22' W 071°02'0 0.3
2018-Feb-18 13:27N 42°22' W 071°02'0 0.0
2018-Feb-18 12:57N 42°22' W 071°02'0 0.2
2018-Feb-18 12:51N 42°22' W 071°02'0 0.0
2018-Feb-18 12:30N 42°22' W 071°02'0 0.5
2018-Feb-18 12:29N 42°22' W 071°02'0 0.0
2018-Feb-18 12:00N 42°22' W 071°02'0 2.0
2018-Feb-18 12:00N 42°22' W 071°02'0 0.0
2018-Feb-18 11:30N 42°22' W 071°02'0 2.0
2018-Feb-18 11:30N 42°22' W 071°02'0 0.0
2018-Feb-18 10:59N 42°22' W 071°02'0 4.3
2018-Feb-18 10:59N 42°22' W 071°02'0 0.0
2018-Feb-18 10:28N 42°22' W 071°02'0 0.4
2018-Feb-18 10:26N 42°22' W 071°02'0 0.0
2018-Feb-18 10:00N 42°22' W 071°02'0 4.8
2018-Feb-18 10:00N 42°22' W 071°02'0 0.0
2018-Feb-18 08:01N 42°22' W 071°02'0 0.2
2018-Feb-18 07:59N 42°22' W 071°02'0 0.0
2018-Feb-18 07:30N 42°22' W 071°02'0 0.0
2018-Feb-18 07:00N 42°22' W 071°02'0 0.0
2018-Feb-18 06:30N 42°22' W 071°02'0 0.7
2018-Feb-18 06:28N 42°22' W 071°02'0 0.0
2018-Feb-18 05:59N 42°22' W 071°02'117.9
2018-Feb-18 05:55N 42°21' W 071°01'1 1.8
2018-Feb-18 05:30N 42°21' W 071°02'0 7.2
2018-Feb-18 05:26N 42°22' W 071°02'0 0.0
2018-Feb-18 04:57N 42°22' W 071°02'698.2
2018-Feb-18 04:53N 42°22' W 070°54'2 5.6
2018-Feb-18 04:30N 42°23' W 070°51'83643.4
2018-Feb-18 04:30N 42°22' W 071°02'0 0.0
2018-Feb-18 04:00N 42°22' W 071°02'6765.2
2018-Feb-18 04:00N 42°22' W 070°54'611.1
2018-Feb-18 03:30N 42°22' W 071°02'127.8
2018-Feb-18 03:27N 42°21' W 071°01'1 0.9
2018-Feb-18 01:55N 42°22' W 071°02'0 0.0
2018-Feb-18 01:29N 42°22' W 071°02'0 0.0
2018-Feb-18 00:53N 42°22' W 071°02'0 0.0
2018-Feb-18 00:29N 42°22' W 071°02'0 0.0
2018-Feb-17 23:58N 42°22' W 071°02'0 0.0
2018-Feb-17 23:30N 42°22' W 071°02'0 0.0
2018-Feb-17 23:00N 42°22' W 071°02'0 0.4
2018-Feb-17 22:45N 42°22' W 071°02'0 0.4
2018-Feb-17 22:29N 42°22' W 071°02'0 0.0
2018-Feb-17 22:00N 42°22' W 071°02'714.0
2018-Feb-17 21:32N 42°17' W 070°56'793.1
2018-Feb-17 21:27N 42°22' W 071°02'525.0
2018-Feb-17 21:15N 42°19' W 070°56'519.1
2018-Feb-17 20:59N 42°22' W 071°02'428.4
2018-Feb-17 20:51N 42°20' W 070°58'3 9.7
2018-Feb-17 20:30N 42°21' W 071°02'146.5
2018-Feb-17 20:29N 42°22' W 071°02'0 0.0
2018-Feb-17 19:58N 42°22' W 071°02'663.3
2018-Feb-17 19:53N 42°23' W 070°54'615.0
2018-Feb-17 19:28N 42°22' W 071°02'216.3
2018-Feb-17 19:22N 42°20' W 071°00'2 4.7
2018-Feb-17 18:59N 42°22' W 071°02'0 0.0
2018-Feb-17 18:29N 42°22' W 071°02'0 0.0
2018-Feb-17 17:12N 42°22' W 071°02'1 5.7
2018-Feb-17 16:58N 42°21' W 071°01'114.8
2018-Feb-17 16:52N 42°22' W 071°02'0 0.0
2018-Feb-17 16:26N 42°22' W 071°02'8201.9
2018-Feb-17 16:23N 42°23' W 070°52'1 1.5
2018-Feb-17 15:32N 42°23' W 070°54'110.3
2018-Feb-17 15:29N 42°23' W 070°53'1 1.0
2018-Feb-17 14:57N 42°23' W 070°53'632.5
2018-Feb-17 14:45N 42°22' W 071°02'1 1.9
2018-Feb-17 14:13N 42°21' W 071°01'1 0.9
2018-Feb-17 13:06N 42°22' W 071°02'0 0.0
2018-Feb-17 12:50N 42°22' W 071°02'0 0.0
2018-Feb-17 12:22N 42°22' W 071°02'0 0.0
2018-Feb-17 11:56N 42°22' W 071°02'0 0.2
2018-Feb-17 11:51N 42°22' W 071°02'0 0.0
2018-Feb-17 11:30N 42°22' W 071°02'0 2.9
2018-Feb-17 11:30N 42°22' W 071°02'610.6
2018-Feb-17 10:57N 42°22' W 070°54'6308.8
2018-Feb-17 10:56N 42°22' W 071°02'0 0.0
2018-Feb-17 10:24N 42°22' W 071°02'4104.7
2018-Feb-17 10:22N 42°20' W 070°57'1 3.7
2018-Feb-17 09:59N 42°20' W 070°59'312.8
2018-Feb-17 09:47N 42°22' W 071°02'0 0.0
2018-Feb-17 09:30N 42°22' W 071°02'0 0.0
2018-Feb-17 08:58N 42°22' W 071°02'0 0.0
2018-Feb-17 08:28N 42°22' W 071°02'0 0.0
2018-Feb-17 07:47N 42°22' W 071°02'0 0.0
2018-Feb-17 07:30N 42°22' W 071°02'0 0.0
2018-Feb-17 07:09N 42°22' W 071°02'0 0.1
2018-Feb-17 07:00N 42°22' W 071°02'0 0.0
2018-Feb-17 06:37N 42°22' W 071°02'0 0.2
2018-Feb-17 06:30N 42°22' W 071°02'0 0.8
2018-Feb-17 06:29N 42°22' W 071°02'0 0.0
2018-Feb-17 06:00N 42°22' W 071°02'0 0.0
2018-Feb-17 05:28N 42°22' W 071°02'0 0.1
2018-Feb-17 05:15N 42°22' W 071°02'0 0.0
2018-Feb-17 05:00N 42°22' W 071°02'0 1.7
2018-Feb-17 04:59N 42°22' W 071°02'0 0.0
2018-Feb-17 04:30N 42°22' W 071°02'0 0.2
2018-Feb-17 04:25N 42°22' W 071°02'0 0.0
2018-Feb-17 03:57N 42°22' W 071°02'0 0.1
2018-Feb-17 03:48N 42°22' W 071°02'0 0.1
2018-Feb-17 03:30N 42°22' W 071°02'0 0.1
2018-Feb-17 03:22N 42°22' W 071°02'0 0.0
2018-Feb-17 02:53N 42°22' W 071°02'0 0.0
2018-Feb-16 23:58N 42°22' W 071°02'0 0.6
2018-Feb-16 23:57N 42°22' W 071°02'0 0.0
2018-Feb-16 23:29N 42°22' W 071°02'0 0.0
2018-Feb-16 23:00N 42°22' W 071°02'0 0.2
2018-Feb-16 22:56N 42°22' W 071°02'0 0.0
2018-Feb-16 22:30N 42°22' W 071°02'0 0.7
2018-Feb-16 22:28N 42°22' W 071°02'0 0.0
2018-Feb-16 22:00N 42°22' W 071°02'0 0.1
2018-Feb-16 21:53N 42°22' W 071°02'0 0.3
2018-Feb-16 21:26N 42°22' W 071°02'0 2.5
2018-Feb-16 21:23N 42°22' W 071°02'0 0.0
2018-Feb-16 21:00N 42°22' W 071°02'332.2
2018-Feb-16 20:55N 42°20' W 070°58'3 7.4
2018-Feb-16 20:30N 42°22' W 071°02'4187.2
2018-Feb-16 20:29N 42°21' W 070°56'1 1.6
2018-Feb-16 20:01N 42°21' W 070°56'1 1.7
2018-Feb-16 19:29N 42°22' W 070°55'611.8
2018-Feb-16 19:00N 42°22' W 071°03'2 3.4
2018-Feb-16 18:28N 42°21' W 071°01'3 5.5
2018-Feb-16 18:00N 42°23' W 071°03'4 6.8
2018-Feb-16 17:24N 42°20' W 070°58'314.8
2018-Feb-16 17:12N 42°22' W 071°02'839.7
2018-Feb-16 17:00N 42°23' W 070°51'824.1
2018-Feb-16 16:41N 42°22' W 071°02'634.6
2018-Feb-16 16:31N 42°22' W 070°54'6170.6
2018-Feb-16 16:28N 42°22' W 071°02'1 2.9
2018-Feb-16 16:00N 42°21' W 071°01'138.4
2018-Feb-16 15:58N 42°22' W 071°02'0 0.0
2018-Feb-16 15:30N 42°22' W 071°02'8791.6
2018-Feb-16 15:30N 42°24' W 070°52'815.7
2018-Feb-16 15:00N 42°22' W 071°02'41321.9
2018-Feb-16 15:00N 42°20' W 070°57'4 8.2
2018-Feb-16 14:30N 42°22' W 071°02'0 0.0
2018-Feb-16 14:25N 42°22' W 071°02'0 0.0
2018-Feb-16 14:00N 42°22' W 071°02'0 0.8
2018-Feb-16 14:00N 42°22' W 071°02'0 0.0
2018-Feb-16 13:30N 42°22' W 071°02'3100.2
2018-Feb-16 13:28N 42°20' W 070°59'714.4
2018-Feb-16 13:00N 42°24' W 070°51'84278.2
2018-Feb-16 13:00N 42°22' W 071°02'816.2
2018-Feb-16 12:30N 42°24' W 070°51'8605.9
2018-Feb-16 12:30N 42°22' W 071°02'815.9
2018-Feb-16 11:59N 42°24' W 070°51'0 0.2
2018-Feb-16 11:30N 42°24' W 070°51'4 6.5
2018-Feb-16 10:56N 42°22' W 070°56'2 4.6
2018-Feb-16 10:29N 42°23' W 070°54'1 2.8
2018-Feb-16 10:00N 42°24' W 070°52'0 0.4
2018-Feb-16 09:30N 42°23' W 070°52'715.3
2018-Feb-16 09:01N 42°22' W 071°02'9607.2
2018-Feb-16 09:00N 42°24' W 070°50'9127.3
2018-Feb-16 08:56N 42°22' W 071°02'2 2.7
2018-Feb-16 08:10N 42°20' W 070°60'2 1.4
2018-Feb-16 06:43N 42°22' W 071°02'0 0.0
2018-Feb-16 06:16N 42°22' W 071°02'0 0.0
2018-Feb-16 05:25N 42°22' W 071°02'0 0.0
2018-Feb-16 04:48N 42°22' W 071°02'0 0.0
2018-Feb-16 04:18N 42°22' W 071°02'0 0.0
2018-Feb-16 02:40N 42°22' W 071°02'0 0.0
2018-Feb-16 02:20N 42°22' W 071°02'0 0.0
2018-Feb-16 01:53N 42°22' W 071°02'0 0.0
2018-Feb-16 01:33N 42°22' W 071°02'0 0.1
2018-Feb-16 01:21N 42°22' W 071°02'0 0.3
2018-Feb-16 01:18N 42°22' W 071°02'0 0.1
2018-Feb-16 01:00N 42°22' W 071°02'0 0.5
2018-Feb-16 00:58N 42°22' W 071°02'0 0.0
2018-Feb-16 00:20N 42°22' W 071°02'0 0.4
2018-Feb-16 00:18N 42°22' W 071°02'0 0.1
2018-Feb-16 00:00N 42°22' W 071°02'0 0.0
2018-Feb-15 23:30N 42°22' W 071°02'0 0.0
2018-Feb-15 22:09N 42°22' W 071°02'0 0.0
2018-Feb-15 21:54N 42°22' W 071°02'0 0.0
2018-Feb-15 21:30N 42°22' W 071°02'0 0.0
2018-Feb-15 20:55N 42°22' W 071°02'0 0.0
2018-Feb-15 19:24N 42°22' W 071°02'0 0.1
2018-Feb-15 19:11N 42°22' W 071°02'3 7.8
2018-Feb-15 18:51N 42°20' W 070°59'3291.9
2018-Feb-15 18:50N 42°22' W 071°02'617.6
2018-Feb-15 18:30N 42°22' W 070°54'672.9
2018-Feb-15 18:25N 42°22' W 071°02'820.0
2018-Feb-15 18:00N 42°23' W 070°51'829.8
2018-Feb-15 17:43N 42°22' W 071°02'0 0.0
2018-Feb-15 17:21N 42°22' W 071°02'1266.5
2018-Feb-15 17:21N 42°21' W 071°01'1 0.8
2018-Feb-15 16:02N 42°22' W 071°02'0 0.0
2018-Feb-15 16:00N 42°22' W 071°02'0 0.0
2018-Feb-15 15:23N 42°22' W 071°02'0 0.0
2018-Feb-15 14:51N 42°22' W 071°02'0 0.0
2018-Feb-15 13:07N 42°22' W 071°02'0 0.0
2018-Feb-15 12:50N 42°22' W 071°02'0 0.0
2018-Feb-15 12:15N 42°22' W 071°02'0 0.0
2018-Feb-15 11:58N 42°22' W 071°02'0 0.3
2018-Feb-15 11:55N 42°22' W 071°02'2 4.7
2018-Feb-15 11:30N 42°20' W 070°60'238.3
2018-Feb-15 11:26N 42°22' W 071°02'0 0.0
2018-Feb-15 10:04N 42°22' W 071°02'0 0.0
2018-Feb-15 09:58N 42°22' W 071°02'0 0.0
2018-Feb-15 09:30N 42°22' W 071°02'0 0.0
2018-Feb-15 08:55N 42°22' W 071°02'0 0.0
2018-Feb-15 08:15N 42°22' W 071°02'0 0.0
2018-Feb-15 07:59N 42°22' W 071°02'0 0.0
2018-Feb-15 06:57N 42°22' W 071°02'0 0.0
2018-Feb-15 06:30N 42°22' W 071°02'0 0.0
2018-Feb-15 05:58N 42°22' W 071°02'0 0.0
2018-Feb-15 05:28N 42°22' W 071°02'0 0.0
2018-Feb-15 05:00N 42°22' W 071°02'0 1.0
2018-Feb-15 04:59N 42°22' W 071°02'511.3
2018-Feb-15 04:30N 42°22' W 070°55'590.2
2018-Feb-15 04:27N 42°22' W 071°02'0 0.0
2018-Feb-15 04:00N 42°22' W 071°02'230.2
2018-Feb-15 03:56N 42°20' W 070°60'2 4.9
2018-Feb-15 03:30N 42°22' W 071°02'0 0.0
2018-Feb-15 02:58N 42°22' W 071°02'0 0.0
2018-Feb-15 02:46N 42°22' W 071°02'1 4.2
2018-Feb-15 02:30N 42°21' W 071°01'145.5
2018-Feb-15 02:29N 42°22' W 071°02'0 0.0
2018-Feb-15 02:00N 42°22' W 071°02'465.9
2018-Feb-15 01:56N 42°21' W 070°56'3 7.2
2018-Feb-15 01:30N 42°23' W 070°53'3 6.7
2018-Feb-15 01:00N 42°25' W 070°49'713.7
2018-Feb-15 00:29N 42°20' W 070°57'4 7.3
2018-Feb-15 00:01N 42°21' W 071°02'1 6.3
2018-Feb-14 23:49N 42°22' W 071°02'1 3.5
2018-Feb-14 23:28N 42°21' W 071°01'1 1.6
2018-Feb-14 22:45N 42°22' W 071°02'412.6
2018-Feb-14 22:27N 42°20' W 070°57'0 0.5
2018-Feb-14 21:55N 42°20' W 070°57'1 1.3
2018-Feb-14 21:22N 42°21' W 070°58'3 5.7
2018-Feb-14 20:54N 42°21' W 071°01'1 0.1
2018-Feb-14 15:54N 42°22' W 071°02'2 4.5
2018-Feb-14 15:25N 42°20' W 070°60'1 3.6
2018-Feb-14 15:00N 42°20' W 070°58'4 2.6
2018-Feb-14 13:39N 42°22' W 071°02'0 0.0
2018-Feb-14 13:20N 42°22' W 071°02'0 0.0
2018-Feb-14 12:58N 42°22' W 071°02'1 2.9
2018-Feb-14 12:30N 42°23' W 071°03'812.1
2018-Feb-14 11:49N 42°16' W 070°56'2 3.2
2018-Feb-14 11:19N 42°15' W 070°57'513.9
2018-Feb-14 10:57N 42°20' W 070°60'2 3.5
2018-Feb-14 10:29N 42°20' W 070°58'714.4
2018-Feb-14 10:01N 42°24' W 070°50'611.2
2018-Feb-14 09:29N 42°20' W 070°57'4 0.6
2018-Feb-14 03:02N 42°22' W 071°02'0 0.0
2018-Feb-14 03:00N 42°22' W 071°02'0 0.0
2018-Feb-14 02:29N 42°22' W 071°02'610.6
2018-Feb-14 01:56N 42°23' W 070°54'4 9.6
2018-Feb-14 01:29N 42°20' W 070°59'2 2.2
2018-Feb-14 00:35N 42°21' W 071°01'0 1.3
2018-Feb-14 00:30N 42°21' W 071°01'113.1
2018-Feb-14 00:24N 42°22' W 071°02'0 0.0
2018-Feb-13 23:54N 42°22' W 071°02'0 0.4
2018-Feb-13 23:52N 42°22' W 071°02'0 0.0
2018-Feb-13 23:31N 42°22' W 071°02'0 0.9
2018-Feb-13 23:29N 42°22' W 071°02'0 0.0
2018-Feb-13 23:00N 42°22' W 071°02'0 0.1
2018-Feb-13 22:47N 42°22' W 071°02'0 0.0
2018-Feb-13 22:26N 42°22' W 071°02'0 8.6
2018-Feb-13 22:26N 42°22' W 071°02'0 0.0
2018-Feb-13 22:00N 42°22' W 071°02'0 0.0
2018-Feb-13 21:26N 42°22' W 071°02'0 0.0
2018-Feb-13 20:59N 42°22' W 071°02'0 0.0
2018-Feb-13 20:19N 42°22' W 071°02'0 0.0
2018-Feb-13 16:49N 42°22' W 071°02'2 5.0
2018-Feb-13 16:30N 42°23' W 071°03'2 1.2
2018-Feb-13 14:51N 42°21' W 071°02'0 1.1
2018-Feb-13 14:25N 42°22' W 071°02'0 0.0
2018-Feb-13 13:58N 42°22' W 071°02'0 0.0
2018-Feb-13 13:09N 42°22' W 071°02'0 0.0
2018-Feb-13 12:57N 42°22' W 071°02'0 0.0
2018-Feb-13 12:35N 42°22' W 071°02'0 0.0
2018-Feb-13 12:22N 42°22' W 071°02'0 0.1
2018-Feb-13 12:17N 42°22' W 071°02'0 0.8
2018-Feb-13 11:59N 42°22' W 071°02'5 7.8
2018-Feb-13 11:22N 42°22' W 070°55'410.6
2018-Feb-13 11:00N 42°24' W 070°51'811.7
2018-Feb-13 10:17N 42°21' W 071°01'1 2.3
2018-Feb-13 09:58N 42°22' W 071°02'0 0.0
2018-Feb-13 09:29N 42°22' W 071°02'0 0.0
2018-Feb-13 08:59N 42°22' W 071°02'0 0.0
2018-Feb-13 08:30N 42°22' W 071°02'0 0.1
2018-Feb-13 08:19N 42°22' W 071°02'0 0.1
2018-Feb-13 07:59N 42°22' W 071°02'0 0.6
2018-Feb-13 07:58N 42°22' W 071°02'0 0.0
2018-Feb-13 07:30N 42°22' W 071°02'0 2.5
2018-Feb-13 07:30N 42°22' W 071°02'0 0.0
2018-Feb-13 07:00N 42°22' W 071°02'0 0.0
2018-Feb-13 06:37N 42°22' W 071°02'0 0.1
2018-Feb-13 06:30N 42°22' W 071°02'0 0.1
2018-Feb-13 06:20N 42°22' W 071°02'0 0.0
2018-Feb-13 05:59N 42°22' W 071°02'0 5.4
2018-Feb-13 05:59N 42°22' W 071°02'0 0.0
2018-Feb-13 05:30N 42°22' W 071°02'0 0.0
2018-Feb-13 05:12N 42°22' W 071°02'0 0.0
2018-Feb-13 04:53N 42°22' W 071°02'0 0.5
2018-Feb-13 04:51N 42°22' W 071°02'0 0.6
2018-Feb-13 04:30N 42°22' W 071°02'0 4.1
2018-Feb-13 04:27N 42°22' W 071°02'614.0
2018-Feb-13 03:59N 42°23' W 070°53'6212.0
2018-Feb-13 03:57N 42°22' W 071°02'0 0.0
2018-Feb-13 03:26N 42°22' W 071°02'0 0.0
2018-Feb-13 02:51N 42°22' W 071°02'0 0.0
2018-Feb-13 02:05N 42°22' W 071°02'0 0.0
2018-Feb-13 00:59N 42°22' W 071°02'6346.9
2018-Feb-13 00:58N 42°25' W 070°55'4 8.9
2018-Feb-13 00:30N 42°24' W 070°50'3 5.8
2018-Feb-12 23:59N 42°23' W 070°53'614.1
2018-Feb-12 23:32N 42°22' W 071°02'130.3
2018-Feb-12 23:29N 42°21' W 071°01'117.3
2018-Feb-12 23:25N 42°22' W 071°02'0 0.0
2018-Feb-12 22:42N 42°22' W 071°02'0 0.0
2018-Feb-12 16:36N 42°22' W 071°02'0 0.0
2018-Feb-12 16:30N 42°22' W 071°02'0 0.0
2018-Feb-12 14:50N 42°22' W 071°02'0 0.6
2018-Feb-12 14:30N 42°22' W 071°02'0 0.4
2018-Feb-12 13:57N 42°22' W 071°02'6 8.3
2018-Feb-12 13:11N 42°22' W 070°53'1 6.3
2018-Feb-12 13:00N 42°23' W 070°52'2 4.2
2018-Feb-12 12:30N 42°22' W 070°55'3 6.5
2018-Feb-12 12:01N 42°24' W 070°51'2 4.9
2018-Feb-12 11:30N 42°21' W 070°49'3 1.1
2018-Feb-12 09:04N 42°23' W 070°53'112.0
2018-Feb-12 09:00N 42°23' W 070°52'8 7.6
2018-Feb-12 08:00N 42°22' W 071°02'0 0.0
2018-Feb-12 07:30N 42°22' W 071°02'0 0.0
2018-Feb-12 07:09N 42°22' W 071°02'0 0.1
2018-Feb-12 07:00N 42°22' W 071°02'0 0.0
2018-Feb-12 06:29N 42°22' W 071°02'0 0.0
2018-Feb-12 06:00N 42°22' W 071°02'0 0.0
2018-Feb-12 05:30N 42°22' W 071°02'0 0.0
2018-Feb-12 04:59N 42°22' W 071°02'0 0.0
2018-Feb-12 04:30N 42°22' W 071°02'0 0.0
2018-Feb-12 03:58N 42°22' W 071°02'0 0.0
2018-Feb-12 03:30N 42°22' W 071°02'0 0.0
2018-Feb-12 03:00N 42°22' W 071°02'0 0.0
2018-Feb-12 02:29N 42°22' W 071°02'0 0.0
2018-Feb-12 02:00N 42°22' W 071°02'0 0.0
2018-Feb-12 01:29N 42°22' W 071°02'0 0.0
2018-Feb-12 01:00N 42°22' W 071°02'0 0.0
2018-Feb-12 00:30N 42°22' W 071°02'0 0.0
2018-Feb-12 00:00N 42°22' W 071°02'0 0.0
2018-Feb-11 23:25N 42°22' W 071°02'0 0.0
2018-Feb-11 22:56N 42°22' W 071°02'0 0.0
2018-Feb-11 22:22N 42°22' W 071°02'0 0.0
2018-Feb-11 22:00N 42°22' W 071°02'0 0.0
2018-Feb-11 21:30N 42°22' W 071°02'0 0.0
2018-Feb-11 21:00N 42°22' W 071°02'0 0.0
2018-Feb-11 20:32N 42°22' W 071°02'0 0.1
2018-Feb-11 20:23N 42°22' W 071°02'0 0.1
2018-Feb-11 20:06N 42°22' W 071°02'0 0.2
2018-Feb-11 20:00N 42°22' W 071°02'0 0.6
2018-Feb-11 19:59N 42°22' W 071°02'0 0.0
2018-Feb-11 19:30N 42°22' W 071°02'066.7
2018-Feb-11 19:30N 42°22' W 071°02'0 0.0
2018-Feb-11 19:00N 42°22' W 071°02'0 0.0
2018-Feb-11 18:29N 42°22' W 071°02'0 0.0
2018-Feb-11 17:58N 42°22' W 071°02'0 0.0
2018-Feb-11 17:26N 42°22' W 071°02'3 6.4
2018-Feb-11 16:55N 42°20' W 070°58'2 3.8
2018-Feb-11 16:30N 42°21' W 070°56'4 1.8
2018-Feb-11 14:02N 42°22' W 071°02'0 0.0
2018-Feb-11 13:38N 42°22' W 071°02'0 0.0
2018-Feb-11 13:12N 42°22' W 071°02'1 4.6
2018-Feb-11 12:54N 42°21' W 071°01'717.0
2018-Feb-11 12:30N 42°20' W 070°52'2 3.9
2018-Feb-11 11:52N 42°22' W 070°50'2 4.4
2018-Feb-11 11:30N 42°23' W 070°51'2 4.4
2018-Feb-11 11:00N 42°22' W 070°54'4 8.7
2018-Feb-11 10:31N 42°24' W 070°49'813.3
2018-Feb-11 09:57N 42°20' W 070°58'3 4.0
2018-Feb-11 09:16N 42°21' W 071°02'1 1.2
2018-Feb-11 08:45N 42°22' W 071°02'0 0.0
2018-Feb-11 08:23N 42°22' W 071°02'1 0.1
2018-Feb-10 23:32N 42°21' W 071°02'1 7.8
2018-Feb-10 23:23N 42°21' W 071°00'616.1
2018-Feb-10 23:00N 42°23' W 070°53'4 7.4
2018-Feb-10 22:28N 42°20' W 070°57'3 5.7
2018-Feb-10 21:56N 42°21' W 071°01'2 3.7
2018-Feb-10 21:25N 42°20' W 070°58'1 2.6
2018-Feb-10 20:58N 42°20' W 070°57'3 6.7
2018-Feb-10 20:29N 42°23' W 070°53'3 6.5
2018-Feb-10 20:00N 42°24' W 070°49'1 1.1
2018-Feb-10 19:29N 42°23' W 070°50'6 9.8
2018-Feb-10 18:52N 42°20' W 070°57'512.0
2018-Feb-10 18:29N 42°22' W 071°03'2 2.9
2018-Feb-10 17:58N 42°21' W 071°01'0 0.2
2018-Feb-10 17:28N 42°21' W 071°01'1 2.7
2018-Feb-10 17:00N 42°22' W 071°02'0 0.0
2018-Feb-10 15:48N 42°22' W 071°02'4 7.0
2018-Feb-10 15:16N 42°20' W 070°57'414.1
2018-Feb-10 15:00N 42°22' W 070°53'1 2.8
2018-Feb-10 14:30N 42°23' W 070°51'8 3.2
2018-Feb-10 12:05N 42°22' W 071°02'0 0.0
2018-Feb-10 11:47N 42°22' W 071°02'0 0.0
2018-Feb-10 11:28N 42°22' W 071°02'2 4.1
2018-Feb-10 10:57N 42°20' W 070°60'1 1.3
2018-Feb-10 10:30N 42°20' W 070°59'714.9
2018-Feb-10 10:00N 42°24' W 070°50'914.5
2018-Feb-10 09:23N 42°21' W 071°01'124.2
2018-Feb-10 09:20N 42°22' W 071°02'0 0.0
2018-Feb-10 08:58N 42°22' W 071°02'0 0.0
2018-Feb-10 08:23N 42°22' W 071°02'0 0.0
2018-Feb-10 08:09N 42°22' W 071°02'0 0.0
2018-Feb-10 07:58N 42°22' W 071°02'0 0.0
2018-Feb-10 07:21N 42°22' W 071°02'0 0.0
2018-Feb-10 06:52N 42°22' W 071°02'0 0.0
2018-Feb-10 01:31N 42°22' W 071°02'0 0.1
2018-Feb-10 01:25N 42°22' W 071°02'610.4
2018-Feb-10 00:50N 42°22' W 070°54'3 8.7
2018-Feb-10 00:28N 42°20' W 070°57'4 7.7
2018-Feb-09 23:58N 42°22' W 071°02'0 0.3
2018-Feb-09 23:11N 42°22' W 071°02'1 5.5
2018-Feb-09 23:00N 42°23' W 071°03'1 1.7
2018-Feb-09 22:36N 42°23' W 071°02'  
Track history (hours):
 
Tides and Currents Weather Stations Pressure Air Temp Water Temp Dewpoint Dewpoint Depression Visibility Wind Speed Wind Dir Waves Ship Positions

Boston Pilot Mystic

Last reported at 2018-Feb-19 14:28 UTC. Time now 2018-Feb-19 14:37 UTC.
Position N 42°22' W 071°02'.

Length 16 m; draft 1.5 m.

Type: Pilot. MMSI: 367029020.

Date/timePositionNaut miles runAvg speedWind from/ knotsBaromVisibWave heightAir tempDewpointWater temp
2018-Feb-19 14:28N 42°22' W 071°02'0 0.0
2018-Feb-19 14:00N 42°22' W 071°02'0 0.3
2018-Feb-19 13:49N 42°22' W 071°02'0 0.2
2018-Feb-19 13:29N 42°22' W 071°02'629.4
2018-Feb-19 13:17N 42°19' W 070°54'622.6
2018-Feb-19 13:00N 42°22' W 071°02'931080.9
2018-Feb-19 13:00N 42°20' W 070°50'917.1
2018-Feb-19 12:30N 42°22' W 071°02'51056.3
2018-Feb-19 12:30N 42°19' W 070°55'510.0
2018-Feb-19 12:00N 42°21' W 071°02'019.4
2018-Feb-19 11:59N 42°22' W 071°02'0 0.0
2018-Feb-19 11:30N 42°22' W 071°02'0 0.9
2018-Feb-19 11:29N 42°22' W 071°02'0 0.0
2018-Feb-19 11:00N 42°22' W 071°02'0 2.2
2018-Feb-19 11:00N 42°22' W 071°02'0 0.0
2018-Feb-19 10:30N 42°22' W 071°02'0 0.4
2018-Feb-19 10:28N 42°22' W 071°02'0 0.0
2018-Feb-19 10:00N 42°22' W 071°02'021.6
2018-Feb-19 10:00N 42°22' W 071°02'0 0.0
2018-Feb-19 09:30N 42°22' W 071°02'021.6
2018-Feb-19 09:30N 42°22' W 071°02'0 0.0
2018-Feb-19 09:00N 42°22' W 071°02'064.8
2018-Feb-19 09:00N 42°22' W 071°02'0 0.0
2018-Feb-19 08:30N 42°22' W 071°02'0 0.0
2018-Feb-19 08:00N 42°22' W 071°02'0 2.0
2018-Feb-19 08:00N 42°22' W 071°02'0 0.0
2018-Feb-19 07:30N 42°22' W 071°02'0 0.0
2018-Feb-19 07:00N 42°22' W 071°02'0 1.7
2018-Feb-19 07:00N 42°22' W 071°02'0 0.0
2018-Feb-19 06:30N 42°22' W 071°02'0 2.8
2018-Feb-19 06:30N 42°22' W 071°02'0 0.0
2018-Feb-19 06:00N 42°22' W 071°02'0 1.1
2018-Feb-19 06:00N 42°22' W 071°02'2 3.3
2018-Feb-19 05:30N 42°21' W 071°00'2162.5
2018-Feb-19 05:29N 42°22' W 071°02'0 0.0
2018-Feb-19 04:59N 42°22' W 071°02'51782.9
2018-Feb-19 04:59N 42°22' W 070°55'510.3
2018-Feb-19 04:30N 42°22' W 071°02'2331.3
2018-Feb-19 04:30N 42°20' W 071°01'2 3.2
2018-Feb-19 04:00N 42°22' W 071°02'032.9
2018-Feb-19 04:00N 42°22' W 071°02'0 0.1
2018-Feb-19 03:30N 42°22' W 071°02'4353.5
2018-Feb-19 03:30N 42°20' W 070°58'611.4
2018-Feb-19 03:01N 42°23' W 070°51'85835.8
2018-Feb-19 03:00N 42°22' W 071°02'0 0.0
2018-Feb-19 02:30N 42°22' W 071°02'9752.0
2018-Feb-19 02:30N 42°24' W 070°50'4 7.3
2018-Feb-19 02:01N 42°22' W 070°54'6819.7
2018-Feb-19 02:00N 42°22' W 071°02'1 2.0
2018-Feb-19 01:30N 42°21' W 071°01'1101.9
2018-Feb-19 01:30N 42°22' W 071°02'0 0.0
2018-Feb-19 01:00N 42°22' W 071°02'0 2.9
2018-Feb-19 01:00N 42°22' W 071°02'0 0.0
2018-Feb-19 00:30N 42°22' W 071°02'0 1.5
2018-Feb-19 00:30N 42°22' W 071°02'0 0.0
2018-Feb-19 00:00N 42°22' W 071°02'0 1.6
2018-Feb-18 23:59N 42°22' W 071°02'0 0.0
2018-Feb-18 23:30N 42°22' W 071°02'0 0.6
2018-Feb-18 23:28N 42°22' W 071°02'0 0.0
2018-Feb-18 23:00N 42°22' W 071°02'0 0.7
2018-Feb-18 22:59N 42°22' W 071°02'0 0.0
2018-Feb-18 22:30N 42°22' W 071°02'0 3.2
2018-Feb-18 22:30N 42°22' W 071°02'0 0.0
2018-Feb-18 21:58N 42°22' W 071°02'0 0.1
2018-Feb-18 21:47N 42°22' W 071°02'0 0.0
2018-Feb-18 21:24N 42°22' W 071°02'0 0.0
2018-Feb-18 21:00N 42°22' W 071°02'0 0.0
2018-Feb-18 20:30N 42°22' W 071°02'0 0.0
2018-Feb-18 20:00N 42°22' W 071°02'0 0.0
2018-Feb-18 19:07N 42°22' W 071°02'0 0.0
2018-Feb-18 18:54N 42°22' W 071°02'0 0.1
2018-Feb-18 16:15N 42°22' W 071°02'715.3
2018-Feb-18 15:46N 42°23' W 070°52'2 5.4
2018-Feb-18 15:28N 42°22' W 070°54'1 2.6
2018-Feb-18 15:00N 42°23' W 070°53'7 7.0
2018-Feb-18 14:04N 42°21' W 071°01'1 3.7
2018-Feb-18 13:49N 42°22' W 071°02'0 0.1
2018-Feb-18 13:40N 42°22' W 071°02'0 0.1
2018-Feb-18 13:30N 42°22' W 071°02'0 0.3
2018-Feb-18 13:27N 42°22' W 071°02'0 0.0
2018-Feb-18 12:57N 42°22' W 071°02'0 0.2
2018-Feb-18 12:51N 42°22' W 071°02'0 0.0
2018-Feb-18 12:30N 42°22' W 071°02'0 0.5
2018-Feb-18 12:29N 42°22' W 071°02'0 0.0
2018-Feb-18 12:00N 42°22' W 071°02'0 2.0
2018-Feb-18 12:00N 42°22' W 071°02'0 0.0
2018-Feb-18 11:30N 42°22' W 071°02'0 2.0
2018-Feb-18 11:30N 42°22' W 071°02'0 0.0
2018-Feb-18 10:59N 42°22' W 071°02'0 4.3
2018-Feb-18 10:59N 42°22' W 071°02'0 0.0
2018-Feb-18 10:28N 42°22' W 071°02'0 0.4
2018-Feb-18 10:26N 42°22' W 071°02'0 0.0
2018-Feb-18 10:00N 42°22' W 071°02'0 4.8
2018-Feb-18 10:00N 42°22' W 071°02'0 0.0
2018-Feb-18 08:01N 42°22' W 071°02'0 0.2
2018-Feb-18 07:59N 42°22' W 071°02'0 0.0
2018-Feb-18 07:30N 42°22' W 071°02'0 0.0
2018-Feb-18 07:00N 42°22' W 071°02'0 0.0
2018-Feb-18 06:30N 42°22' W 071°02'0 0.7
2018-Feb-18 06:28N 42°22' W 071°02'0 0.0
2018-Feb-18 05:59N 42°22' W 071°02'117.9
2018-Feb-18 05:55N 42°21' W 071°01'1 1.8
2018-Feb-18 05:30N 42°21' W 071°02'0 7.2
2018-Feb-18 05:26N 42°22' W 071°02'0 0.0
2018-Feb-18 04:57N 42°22' W 071°02'698.2
2018-Feb-18 04:53N 42°22' W 070°54'2 5.6
2018-Feb-18 04:30N 42°23' W 070°51'83643.4
2018-Feb-18 04:30N 42°22' W 071°02'0 0.0
2018-Feb-18 04:00N 42°22' W 071°02'6765.2
2018-Feb-18 04:00N 42°22' W 070°54'611.1
2018-Feb-18 03:30N 42°22' W 071°02'127.8
2018-Feb-18 03:27N 42°21' W 071°01'1 0.9
2018-Feb-18 01:55N 42°22' W 071°02'0 0.0
2018-Feb-18 01:29N 42°22' W 071°02'0 0.0
2018-Feb-18 00:53N 42°22' W 071°02'0 0.0
2018-Feb-18 00:29N 42°22' W 071°02'0 0.0
2018-Feb-17 23:58N 42°22' W 071°02'0 0.0
2018-Feb-17 23:30N 42°22' W 071°02'0 0.0
2018-Feb-17 23:00N 42°22' W 071°02'0 0.4
2018-Feb-17 22:45N 42°22' W 071°02'0 0.4
2018-Feb-17 22:29N 42°22' W 071°02'0 0.0
2018-Feb-17 22:00N 42°22' W 071°02'714.0
2018-Feb-17 21:32N 42°17' W 070°56'793.1
2018-Feb-17 21:27N 42°22' W 071°02'525.0
2018-Feb-17 21:15N 42°19' W 070°56'519.1
2018-Feb-17 20:59N 42°22' W 071°02'428.4
2018-Feb-17 20:51N 42°20' W 070°58'3 9.7
2018-Feb-17 20:30N 42°21' W 071°02'146.5
2018-Feb-17 20:29N 42°22' W 071°02'0 0.0
2018-Feb-17 19:58N 42°22' W 071°02'663.3
2018-Feb-17 19:53N 42°23' W 070°54'615.0
2018-Feb-17 19:28N 42°22' W 071°02'216.3
2018-Feb-17 19:22N 42°20' W 071°00'2 4.7
2018-Feb-17 18:59N 42°22' W 071°02'0 0.0
2018-Feb-17 18:29N 42°22' W 071°02'0 0.0
2018-Feb-17 17:12N 42°22' W 071°02'1 5.7
2018-Feb-17 16:58N 42°21' W 071°01'114.8
2018-Feb-17 16:52N 42°22' W 071°02'0 0.0
2018-Feb-17 16:26N 42°22' W 071°02'8201.9
2018-Feb-17 16:23N 42°23' W 070°52'1 1.5
2018-Feb-17 15:32N 42°23' W 070°54'110.3
2018-Feb-17 15:29N 42°23' W 070°53'1 1.0
2018-Feb-17 14:57N 42°23' W 070°53'632.5
2018-Feb-17 14:45N 42°22' W 071°02'1 1.9
2018-Feb-17 14:13N 42°21' W 071°01'1 0.9
2018-Feb-17 13:06N 42°22' W 071°02'0 0.0
2018-Feb-17 12:50N 42°22' W 071°02'0 0.0
2018-Feb-17 12:22N 42°22' W 071°02'0 0.0
2018-Feb-17 11:56N 42°22' W 071°02'0 0.2
2018-Feb-17 11:51N 42°22' W 071°02'0 0.0
2018-Feb-17 11:30N 42°22' W 071°02'0 2.9
2018-Feb-17 11:30N 42°22' W 071°02'610.6
2018-Feb-17 10:57N 42°22' W 070°54'6308.8
2018-Feb-17 10:56N 42°22' W 071°02'0 0.0
2018-Feb-17 10:24N 42°22' W 071°02'4104.7
2018-Feb-17 10:22N 42°20' W 070°57'1 3.7
2018-Feb-17 09:59N 42°20' W 070°59'312.8
2018-Feb-17 09:47N 42°22' W 071°02'0 0.0
2018-Feb-17 09:30N 42°22' W 071°02'0 0.0
2018-Feb-17 08:58N 42°22' W 071°02'0 0.0
2018-Feb-17 08:28N 42°22' W 071°02'0 0.0
2018-Feb-17 07:47N 42°22' W 071°02'0 0.0
2018-Feb-17 07:30N 42°22' W 071°02'0 0.0
2018-Feb-17 07:09N 42°22' W 071°02'0 0.1
2018-Feb-17 07:00N 42°22' W 071°02'0 0.0
2018-Feb-17 06:37N 42°22' W 071°02'0 0.2
2018-Feb-17 06:30N 42°22' W 071°02'0 0.8
2018-Feb-17 06:29N 42°22' W 071°02'0 0.0
2018-Feb-17 06:00N 42°22' W 071°02'0 0.0
2018-Feb-17 05:28N 42°22' W 071°02'0 0.1
2018-Feb-17 05:15N 42°22' W 071°02'0 0.0
2018-Feb-17 05:00N 42°22' W 071°02'0 1.7
2018-Feb-17 04:59N 42°22' W 071°02'0 0.0
2018-Feb-17 04:30N 42°22' W 071°02'0 0.2
2018-Feb-17 04:25N 42°22' W 071°02'0 0.0
2018-Feb-17 03:57N 42°22' W 071°02'0 0.1
2018-Feb-17 03:48N 42°22' W 071°02'0 0.1
2018-Feb-17 03:30N 42°22' W 071°02'0 0.1
2018-Feb-17 03:22N 42°22' W 071°02'0 0.0
2018-Feb-17 02:53N 42°22' W 071°02'0 0.0
2018-Feb-16 23:58N 42°22' W 071°02'0 0.6
2018-Feb-16 23:57N 42°22' W 071°02'0 0.0
2018-Feb-16 23:29N 42°22' W 071°02'0 0.0
2018-Feb-16 23:00N 42°22' W 071°02'0 0.2
2018-Feb-16 22:56N 42°22' W 071°02'0 0.0
2018-Feb-16 22:30N 42°22' W 071°02'0 0.7
2018-Feb-16 22:28N 42°22' W 071°02'0 0.0
2018-Feb-16 22:00N 42°22' W 071°02'0 0.1
2018-Feb-16 21:53N 42°22' W 071°02'0 0.3
2018-Feb-16 21:26N 42°22' W 071°02'0 2.5
2018-Feb-16 21:23N 42°22' W 071°02'0 0.0
2018-Feb-16 21:00N 42°22' W 071°02'332.2
2018-Feb-16 20:55N 42°20' W 070°58'3 7.4
2018-Feb-16 20:30N 42°22' W 071°02'4187.2
2018-Feb-16 20:29N 42°21' W 070°56'1 1.6
2018-Feb-16 20:01N 42°21' W 070°56'1 1.7
2018-Feb-16 19:29N 42°22' W 070°55'611.8
2018-Feb-16 19:00N 42°22' W 071°03'2 3.4
2018-Feb-16 18:28N 42°21' W 071°01'3 5.5
2018-Feb-16 18:00N 42°23' W 071°03'4 6.8
2018-Feb-16 17:24N 42°20' W 070°58'314.8
2018-Feb-16 17:12N 42°22' W 071°02'839.7
2018-Feb-16 17:00N 42°23' W 070°51'824.1
2018-Feb-16 16:41N 42°22' W 071°02'634.6
2018-Feb-16 16:31N 42°22' W 070°54'6170.6
2018-Feb-16 16:28N 42°22' W 071°02'1 2.9
2018-Feb-16 16:00N 42°21' W 071°01'138.4
2018-Feb-16 15:58N 42°22' W 071°02'0 0.0
2018-Feb-16 15:30N 42°22' W 071°02'8791.6
2018-Feb-16 15:30N 42°24' W 070°52'815.7
2018-Feb-16 15:00N 42°22' W 071°02'41321.9
2018-Feb-16 15:00N 42°20' W 070°57'4 8.2
2018-Feb-16 14:30N 42°22' W 071°02'0 0.0
2018-Feb-16 14:25N 42°22' W 071°02'0 0.0
2018-Feb-16 14:00N 42°22' W 071°02'0 0.8
2018-Feb-16 14:00N 42°22' W 071°02'0 0.0
2018-Feb-16 13:30N 42°22' W 071°02'3100.2
2018-Feb-16 13:28N 42°20' W 070°59'714.4
2018-Feb-16 13:00N 42°24' W 070°51'84278.2
2018-Feb-16 13:00N 42°22' W 071°02'816.2
2018-Feb-16 12:30N 42°24' W 070°51'8605.9
2018-Feb-16 12:30N 42°22' W 071°02'815.9
2018-Feb-16 11:59N 42°24' W 070°51'0 0.2
2018-Feb-16 11:30N 42°24' W 070°51'4 6.5
2018-Feb-16 10:56N 42°22' W 070°56'2 4.6
2018-Feb-16 10:29N 42°23' W 070°54'1 2.8
2018-Feb-16 10:00N 42°24' W 070°52'0 0.4
2018-Feb-16 09:30N 42°23' W 070°52'715.3
2018-Feb-16 09:01N 42°22' W 071°02'9607.2
2018-Feb-16 09:00N 42°24' W 070°50'9127.3
2018-Feb-16 08:56N 42°22' W 071°02'2 2.7
2018-Feb-16 08:10N 42°20' W 070°60'2 1.4
2018-Feb-16 06:43N 42°22' W 071°02'0 0.0
2018-Feb-16 06:16N 42°22' W 071°02'0 0.0
2018-Feb-16 05:25N 42°22' W 071°02'0 0.0
2018-Feb-16 04:48N 42°22' W 071°02'0 0.0
2018-Feb-16 04:18N 42°22' W 071°02'0 0.0
2018-Feb-16 02:40N 42°22' W 071°02'0 0.0
2018-Feb-16 02:20N 42°22' W 071°02'0 0.0
2018-Feb-16 01:53N 42°22' W 071°02'0 0.0
2018-Feb-16 01:33N 42°22' W 071°02'0 0.1
2018-Feb-16 01:21N 42°22' W 071°02'0 0.3
2018-Feb-16 01:18N 42°22' W 071°02'0 0.1
2018-Feb-16 01:00N 42°22' W 071°02'0 0.5
2018-Feb-16 00:58N 42°22' W 071°02'0 0.0
2018-Feb-16 00:20N 42°22' W 071°02'0 0.4
2018-Feb-16 00:18N 42°22' W 071°02'0 0.1
2018-Feb-16 00:00N 42°22' W 071°02'0 0.0
2018-Feb-15 23:30N 42°22' W 071°02'0 0.0
2018-Feb-15 22:09N 42°22' W 071°02'0 0.0
2018-Feb-15 21:54N 42°22' W 071°02'0 0.0
2018-Feb-15 21:30N 42°22' W 071°02'0 0.0
2018-Feb-15 20:55N 42°22' W 071°02'0 0.0
2018-Feb-15 19:24N 42°22' W 071°02'0 0.1
2018-Feb-15 19:11N 42°22' W 071°02'3 7.8
2018-Feb-15 18:51N 42°20' W 070°59'3291.9
2018-Feb-15 18:50N 42°22' W 071°02'617.6
2018-Feb-15 18:30N 42°22' W 070°54'672.9
2018-Feb-15 18:25N 42°22' W 071°02'820.0
2018-Feb-15 18:00N 42°23' W 070°51'829.8
2018-Feb-15 17:43N 42°22' W 071°02'0 0.0
2018-Feb-15 17:21N 42°22' W 071°02'1266.5
2018-Feb-15 17:21N 42°21' W 071°01'1 0.8
2018-Feb-15 16:02N 42°22' W 071°02'0 0.0
2018-Feb-15 16:00N 42°22' W 071°02'0 0.0
2018-Feb-15 15:23N 42°22' W 071°02'0 0.0
2018-Feb-15 14:51N 42°22' W 071°02'0 0.0
2018-Feb-15 13:07N 42°22' W 071°02'0 0.0
2018-Feb-15 12:50N 42°22' W 071°02'0 0.0
2018-Feb-15 12:15N 42°22' W 071°02'0 0.0
2018-Feb-15 11:58N 42°22' W 071°02'0 0.3
2018-Feb-15 11:55N 42°22' W 071°02'2 4.7
2018-Feb-15 11:30N 42°20' W 070°60'238.3
2018-Feb-15 11:26N 42°22' W 071°02'0 0.0
2018-Feb-15 10:04N 42°22' W 071°02'0 0.0
2018-Feb-15 09:58N 42°22' W 071°02'0 0.0
2018-Feb-15 09:30N 42°22' W 071°02'0 0.0
2018-Feb-15 08:55N 42°22' W 071°02'0 0.0
2018-Feb-15 08:15N 42°22' W 071°02'0 0.0
2018-Feb-15 07:59N 42°22' W 071°02'0 0.0
2018-Feb-15 06:57N 42°22' W 071°02'0 0.0
2018-Feb-15 06:30N 42°22' W 071°02'0 0.0
2018-Feb-15 05:58N 42°22' W 071°02'0 0.0
2018-Feb-15 05:28N 42°22' W 071°02'0 0.0
2018-Feb-15 05:00N 42°22' W 071°02'0 1.0
2018-Feb-15 04:59N 42°22' W 071°02'511.3
2018-Feb-15 04:30N 42°22' W 070°55'590.2
2018-Feb-15 04:27N 42°22' W 071°02'0 0.0
2018-Feb-15 04:00N 42°22' W 071°02'230.2
2018-Feb-15 03:56N 42°20' W 070°60'2 4.9
2018-Feb-15 03:30N 42°22' W 071°02'0 0.0
2018-Feb-15 02:58N 42°22' W 071°02'0 0.0
2018-Feb-15 02:46N 42°22' W 071°02'1 4.2
2018-Feb-15 02:30N 42°21' W 071°01'145.5
2018-Feb-15 02:29N 42°22' W 071°02'0 0.0
2018-Feb-15 02:00N 42°22' W 071°02'465.9
2018-Feb-15 01:56N 42°21' W 070°56'3 7.2
2018-Feb-15 01:30N 42°23' W 070°53'3 6.7
2018-Feb-15 01:00N 42°25' W 070°49'713.7
2018-Feb-15 00:29N 42°20' W 070°57'4 7.3
2018-Feb-15 00:01N 42°21' W 071°02'1 6.3
2018-Feb-14 23:49N 42°22' W 071°02'1 3.5
2018-Feb-14 23:28N 42°21' W 071°01'1 1.6
2018-Feb-14 22:45N 42°22' W 071°02'412.6
2018-Feb-14 22:27N 42°20' W 070°57'0 0.5
2018-Feb-14 21:55N 42°20' W 070°57'1 1.3
2018-Feb-14 21:22N 42°21' W 070°58'3 5.7
2018-Feb-14 20:54N 42°21' W 071°01'1 0.1
2018-Feb-14 15:54N 42°22' W 071°02'2 4.5
2018-Feb-14 15:25N 42°20' W 070°60'1 3.6
2018-Feb-14 15:00N 42°20' W 070°58'4 2.6
2018-Feb-14 13:39N 42°22' W 071°02'0 0.0
2018-Feb-14 13:20N 42°22' W 071°02'0 0.0
2018-Feb-14 12:58N 42°22' W 071°02'1 2.9
2018-Feb-14 12:30N 42°23' W 071°03'812.1
2018-Feb-14 11:49N 42°16' W 070°56'2 3.2
2018-Feb-14 11:19N 42°15' W 070°57'513.9
2018-Feb-14 10:57N 42°20' W 070°60'2 3.5
2018-Feb-14 10:29N 42°20' W 070°58'714.4
2018-Feb-14 10:01N 42°24' W 070°50'611.2
2018-Feb-14 09:29N 42°20' W 070°57'4 0.6
2018-Feb-14 03:02N 42°22' W 071°02'0 0.0
2018-Feb-14 03:00N 42°22' W 071°02'0 0.0
2018-Feb-14 02:29N 42°22' W 071°02'610.6
2018-Feb-14 01:56N 42°23' W 070°54'4 9.6
2018-Feb-14 01:29N 42°20' W 070°59'2 2.2
2018-Feb-14 00:35N 42°21' W 071°01'0 1.3
2018-Feb-14 00:30N 42°21' W 071°01'113.1
2018-Feb-14 00:24N 42°22' W 071°02'0 0.0
2018-Feb-13 23:54N 42°22' W 071°02'0 0.4
2018-Feb-13 23:52N 42°22' W 071°02'0 0.0
2018-Feb-13 23:31N 42°22' W 071°02'0 0.9
2018-Feb-13 23:29N 42°22' W 071°02'0 0.0
2018-Feb-13 23:00N 42°22' W 071°02'0 0.1
2018-Feb-13 22:47N 42°22' W 071°02'0 0.0
2018-Feb-13 22:26N 42°22' W 071°02'0 8.6
2018-Feb-13 22:26N 42°22' W 071°02'0 0.0
2018-Feb-13 22:00N 42°22' W 071°02'0 0.0
2018-Feb-13 21:26N 42°22' W 071°02'0 0.0
2018-Feb-13 20:59N 42°22' W 071°02'0 0.0
2018-Feb-13 20:19N 42°22' W 071°02'0 0.0
2018-Feb-13 16:49N 42°22' W 071°02'2 5.0
2018-Feb-13 16:30N 42°23' W 071°03'2 1.2
2018-Feb-13 14:51N 42°21' W 071°02'0 1.1
2018-Feb-13 14:25N 42°22' W 071°02'0 0.0
2018-Feb-13 13:58N 42°22' W 071°02'0 0.0
2018-Feb-13 13:09N 42°22' W 071°02'0 0.0
2018-Feb-13 12:57N 42°22' W 071°02'0 0.0
2018-Feb-13 12:35N 42°22' W 071°02'0 0.0
2018-Feb-13 12:22N 42°22' W 071°02'0 0.1
2018-Feb-13 12:17N 42°22' W 071°02'0 0.8
2018-Feb-13 11:59N 42°22' W 071°02'5 7.8
2018-Feb-13 11:22N 42°22' W 070°55'410.6
2018-Feb-13 11:00N 42°24' W 070°51'811.7
2018-Feb-13 10:17N 42°21' W 071°01'1 2.3
2018-Feb-13 09:58N 42°22' W 071°02'0 0.0
2018-Feb-13 09:29N 42°22' W 071°02'0 0.0
2018-Feb-13 08:59N 42°22' W 071°02'0 0.0
2018-Feb-13 08:30N 42°22' W 071°02'0 0.1
2018-Feb-13 08:19N 42°22' W 071°02'0 0.1
2018-Feb-13 07:59N 42°22' W 071°02'0 0.6
2018-Feb-13 07:58N 42°22' W 071°02'0 0.0
2018-Feb-13 07:30N 42°22' W 071°02'0 2.5
2018-Feb-13 07:30N 42°22' W 071°02'0 0.0
2018-Feb-13 07:00N 42°22' W 071°02'0 0.0
2018-Feb-13 06:37N 42°22' W 071°02'0 0.1
2018-Feb-13 06:30N 42°22' W 071°02'0 0.1
2018-Feb-13 06:20N 42°22' W 071°02'0 0.0
2018-Feb-13 05:59N 42°22' W 071°02'0 5.4
2018-Feb-13 05:59N 42°22' W 071°02'0 0.0
2018-Feb-13 05:30N 42°22' W 071°02'0 0.0
2018-Feb-13 05:12N 42°22' W 071°02'0 0.0
2018-Feb-13 04:53N 42°22' W 071°02'0 0.5
2018-Feb-13 04:51N 42°22' W 071°02'0 0.6
2018-Feb-13 04:30N 42°22' W 071°02'0 4.1
2018-Feb-13 04:27N 42°22' W 071°02'614.0
2018-Feb-13 03:59N 42°23' W 070°53'6212.0
2018-Feb-13 03:57N 42°22' W 071°02'0 0.0
2018-Feb-13 03:26N 42°22' W 071°02'0 0.0
2018-Feb-13 02:51N 42°22' W 071°02'0 0.0
2018-Feb-13 02:05N 42°22' W 071°02'0 0.0
2018-Feb-13 00:59N 42°22' W 071°02'6346.9
2018-Feb-13 00:58N 42°25' W 070°55'4 8.9
2018-Feb-13 00:30N 42°24' W 070°50'3 5.8
2018-Feb-12 23:59N 42°23' W 070°53'614.1
2018-Feb-12 23:32N 42°22' W 071°02'130.3
2018-Feb-12 23:29N 42°21' W 071°01'117.3
2018-Feb-12 23:25N 42°22' W 071°02'0 0.0
2018-Feb-12 22:42N 42°22' W 071°02'0 0.0
2018-Feb-12 16:36N 42°22' W 071°02'0 0.0
2018-Feb-12 16:30N 42°22' W 071°02'0 0.0
2018-Feb-12 14:50N 42°22' W 071°02'0 0.6
2018-Feb-12 14:30N 42°22' W 071°02'0 0.4
2018-Feb-12 13:57N 42°22' W 071°02'6 8.3
2018-Feb-12 13:11N 42°22' W 070°53'1 6.3
2018-Feb-12 13:00N 42°23' W 070°52'2 4.2
2018-Feb-12 12:30N 42°22' W 070°55'3 6.5
2018-Feb-12 12:01N 42°24' W 070°51'2 4.9
2018-Feb-12 11:30N 42°21' W 070°49'3 1.1
2018-Feb-12 09:04N 42°23' W 070°53'112.0
2018-Feb-12 09:00N 42°23' W 070°52'8 7.6
2018-Feb-12 08:00N 42°22' W 071°02'0 0.0
2018-Feb-12 07:30N 42°22' W 071°02'0 0.0
2018-Feb-12 07:09N 42°22' W 071°02'0 0.1
2018-Feb-12 07:00N 42°22' W 071°02'0 0.0
2018-Feb-12 06:29N 42°22' W 071°02'0 0.0
2018-Feb-12 06:00N 42°22' W 071°02'0 0.0
2018-Feb-12 05:30N 42°22' W 071°02'0 0.0
2018-Feb-12 04:59N 42°22' W 071°02'0 0.0
2018-Feb-12 04:30N 42°22' W 071°02'0 0.0
2018-Feb-12 03:58N 42°22' W 071°02'0 0.0
2018-Feb-12 03:30N 42°22' W 071°02'0 0.0
2018-Feb-12 03:00N 42°22' W 071°02'0 0.0
2018-Feb-12 02:29N 42°22' W 071°02'0 0.0
2018-Feb-12 02:00N 42°22' W 071°02'0 0.0
2018-Feb-12 01:29N 42°22' W 071°02'0 0.0
2018-Feb-12 01:00N 42°22' W 071°02'0 0.0
2018-Feb-12 00:30N 42°22' W 071°02'0 0.0
2018-Feb-12 00:00N 42°22' W 071°02'0 0.0
2018-Feb-11 23:25N 42°22' W 071°02'0 0.0
2018-Feb-11 22:56N 42°22' W 071°02'0 0.0
2018-Feb-11 22:22N 42°22' W 071°02'0 0.0
2018-Feb-11 22:00N 42°22' W 071°02'0 0.0
2018-Feb-11 21:30N 42°22' W 071°02'0 0.0
2018-Feb-11 21:00N 42°22' W 071°02'0 0.0
2018-Feb-11 20:32N 42°22' W 071°02'0 0.1
2018-Feb-11 20:23N 42°22' W 071°02'0 0.1
2018-Feb-11 20:06N 42°22' W 071°02'0 0.2
2018-Feb-11 20:00N 42°22' W 071°02'0 0.6
2018-Feb-11 19:59N 42°22' W 071°02'0 0.0
2018-Feb-11 19:30N 42°22' W 071°02'066.7
2018-Feb-11 19:30N 42°22' W 071°02'0 0.0
2018-Feb-11 19:00N 42°22' W 071°02'0 0.0
2018-Feb-11 18:29N 42°22' W 071°02'0 0.0
2018-Feb-11 17:58N 42°22' W 071°02'0 0.0
2018-Feb-11 17:26N 42°22' W 071°02'3 6.4
2018-Feb-11 16:55N 42°20' W 070°58'2 3.8
2018-Feb-11 16:30N 42°21' W 070°56'4 1.8
2018-Feb-11 14:02N 42°22' W 071°02'0 0.0
2018-Feb-11 13:38N 42°22' W 071°02'0 0.0
2018-Feb-11 13:12N 42°22' W 071°02'1 4.6
2018-Feb-11 12:54N 42°21' W 071°01'717.0
2018-Feb-11 12:30N 42°20' W 070°52'2 3.9
2018-Feb-11 11:52N 42°22' W 070°50'2 4.4
2018-Feb-11 11:30N 42°23' W 070°51'2 4.4
2018-Feb-11 11:00N 42°22' W 070°54'4 8.7
2018-Feb-11 10:31N 42°24' W 070°49'813.3
2018-Feb-11 09:57N 42°20' W 070°58'3 4.0
2018-Feb-11 09:16N 42°21' W 071°02'1 1.2
2018-Feb-11 08:45N 42°22' W 071°02'0 0.0
2018-Feb-11 08:23N 42°22' W 071°02'1 0.1
2018-Feb-10 23:32N 42°21' W 071°02'1 7.8
2018-Feb-10 23:23N 42°21' W 071°00'616.1
2018-Feb-10 23:00N 42°23' W 070°53'4 7.4
2018-Feb-10 22:28N 42°20' W 070°57'3 5.7
2018-Feb-10 21:56N 42°21' W 071°01'2 3.7
2018-Feb-10 21:25N 42°20' W 070°58'1 2.6
2018-Feb-10 20:58N 42°20' W 070°57'3 6.7
2018-Feb-10 20:29N 42°23' W 070°53'3 6.5
2018-Feb-10 20:00N 42°24' W 070°49'1 1.1
2018-Feb-10 19:29N 42°23' W 070°50'6 9.8
2018-Feb-10 18:52N 42°20' W 070°57'512.0
2018-Feb-10 18:29N 42°22' W 071°03'2 2.9
2018-Feb-10 17:58N 42°21' W 071°01'0 0.2
2018-Feb-10 17:28N 42°21' W 071°01'1 2.7
2018-Feb-10 17:00N 42°22' W 071°02'0 0.0
2018-Feb-10 15:48N 42°22' W 071°02'4 7.0
2018-Feb-10 15:16N 42°20' W 070°57'414.1
2018-Feb-10 15:00N 42°22' W 070°53'1 2.8
2018-Feb-10 14:30N 42°23' W 070°51'8 3.2
2018-Feb-10 12:05N 42°22' W 071°02'0 0.0
2018-Feb-10 11:47N 42°22' W 071°02'0 0.0
2018-Feb-10 11:28N 42°22' W 071°02'2 4.1
2018-Feb-10 10:57N 42°20' W 070°60'1 1.3
2018-Feb-10 10:30N 42°20' W 070°59'714.9
2018-Feb-10 10:00N 42°24' W 070°50'914.5
2018-Feb-10 09:23N 42°21' W 071°01'124.2
2018-Feb-10 09:20N 42°22' W 071°02'0 0.0
2018-Feb-10 08:58N 42°22' W 071°02'0 0.0
2018-Feb-10 08:23N 42°22' W 071°02'0 0.0
2018-Feb-10 08:09N 42°22' W 071°02'0 0.0
2018-Feb-10 07:58N 42°22' W 071°02'0 0.0
2018-Feb-10 07:21N 42°22' W 071°02'0 0.0
2018-Feb-10 06:52N 42°22' W 071°02'0 0.0
2018-Feb-10 01:31N 42°22' W 071°02'0 0.1
2018-Feb-10 01:25N 42°22' W 071°02'610.4
2018-Feb-10 00:50N 42°22' W 070°54'3 8.7
2018-Feb-10 00:28N 42°20' W 070°57'4 7.7
2018-Feb-09 23:58N 42°22' W 071°02'0 0.3
2018-Feb-09 23:11N 42°22' W 071°02'1 5.5
2018-Feb-09 23:00N 42°23' W 071°03'1 1.7
2018-Feb-09 22:36N 42°23' W 071°02'  

Dump ship's entire track history